Time;durP1;ratioP1;P1;durP2;ratioP2;P2;SDS_P1;SDS_P2;PMS_P1;PMS_P2;Temp;Humidity;BMP_temperature;BMP_pressure;BME280_temperature;BME280_humidity;BME280_pressure;Samples;Min_cycle;Max_cycle;Signal;HPM_P1;HPM_P2
2023/03/21 00:01:59;;;;;;;49.75;24.63;;;;;;;8.10;90.18;100099.36;1787146;80;25551;-49
2023/03/21 00:04:26;;;;;;;48.58;25.05;;;;;;;8.08;90.00;100097.52;1819897;78;25454;-50
2023/03/21 00:06:54;;;;;;;46.33;24.23;;;;;;;8.07;89.82;100095.91;1787307;80;25447;-51
2023/03/21 00:09:21;;;;;;;54.33;24.05;;;;;;;8.03;90.28;100096.50;1819872;78;25433;-49
2023/03/21 00:11:47;;;;;;;49.73;24.75;;;;;;;8.03;90.37;100101.87;1756917;80;27487;-50
2023/03/21 00:14:18;;;;;;;48.90;24.07;;;;;;;8.01;90.63;100099.25;1819020;78;25813;-49
2023/03/21 00:16:44;;;;;;;51.75;25.90;;;;;;;8.01;90.51;100097.91;1785392;80;25586;-50
2023/03/21 00:19:10;;;;;;;53.68;25.12;;;;;;;8.00;90.75;100089.03;1818758;78;25853;-51
2023/03/21 00:21:37;;;;;;;45.38;22.82;;;;;;;8.00;90.74;100085.52;1787332;80;25473;-52
2023/03/21 00:24:05;;;;;;;48.00;23.32;;;;;;;8.00;91.19;100087.69;1819373;78;28038;-50
2023/03/21 00:26:32;;;;;;;48.38;24.25;;;;;;;8.01;91.17;100088.47;1756757;80;25463;-50
2023/03/21 00:28:58;;;;;;;47.55;23.80;;;;;;;8.00;91.22;100088.21;1814851;78;25463;-50
2023/03/21 00:31:25;;;;;;;46.85;23.02;;;;;;;8.00;91.17;100084.17;1787570;80;25523;-52
2023/03/21 00:33:51;;;;;;;50.23;23.00;;;;;;;7.99;91.28;100079.34;1819896;78;25475;-51
2023/03/21 00:36:18;;;;;;;47.17;24.07;;;;;;;8.00;91.32;100083.64;1787560;80;27479;-51
2023/03/21 00:38:44;;;;;;;49.40;23.77;;;;;;;7.99;91.39;100079.34;1819418;78;25399;-50
2023/03/21 00:41:16;;;;;;;57.35;25.88;;;;;;;8.00;91.50;100078.25;1787558;80;25404;-50
2023/03/21 00:43:40;;;;;;;44.80;22.93;;;;;;;8.00;91.49;100074.74;1818538;78;25570;-50
2023/03/21 00:46:07;;;;;;;47.13;24.10;;;;;;;8.00;91.52;100084.17;1787601;80;25442;-49
2023/03/21 00:48:33;;;;;;;47.58;24.20;;;;;;;8.00;91.63;100080.13;1819843;78;27453;-53
2023/03/21 00:50:59;;;;;;;48.17;23.47;;;;;;;8.01;91.79;100080.39;1787465;80;25461;-49
2023/03/21 00:53:27;;;;;;;49.93;24.63;;;;;;;8.00;92.01;100076.09;1819806;78;25460;-50
2023/03/21 00:55:54;;;;;;;101.27;91.45;;;;;;;7.99;91.67;100080.69;1787230;80;25481;-48
2023/03/21 00:58:20;;;;;;;102.82;92.57;;;;;;;7.98;91.61;100080.42;1819839;78;25465;-49
2023/03/21 01:00:47;;;;;;;101.82;91.32;;;;;;;7.99;91.88;100078.55;1787483;80;27461;-48
2023/03/21 01:03:14;;;;;;;98.87;89.28;;;;;;;7.98;91.78;100072.90;1819721;78;25696;-52
2023/03/21 01:06:04;;;;;;;103.27;93.03;;;;;;;7.99;91.78;100075.86;1787519;80;25444;-48
2023/03/21 01:08:33;;;;;;;;;;;;;;;7.98;91.67;100082.33;1822512;78;26025;-48
2023/03/21 01:11:10;;;;;;;100.80;91.25;;;;;;;8.00;91.85;100076.09;1819826;78;25437;-47
2023/03/21 01:13:37;;;;;;;98.22;89.00;;;;;;;7.98;91.84;100079.08;1786808;80;27526;-48
2023/03/21 01:16:06;;;;;;;99.77;90.32;;;;;;;7.98;91.84;100075.59;1819309;78;25666;-50
2023/03/21 01:18:35;;;;;;;101.67;91.05;;;;;;;7.98;91.70;100075.59;1757282;80;26055;-48
2023/03/21 01:21:07;;;;;;;100.78;91.22;;;;;;;7.96;91.82;100071.84;1819860;78;25485;-49
2023/03/21 01:23:33;;;;;;;99.83;90.12;;;;;;;7.96;91.76;100069.16;1759361;81;25375;-48
2023/03/21 01:25:59;;;;;;;92.60;79.35;;;;;;;7.96;91.74;100075.09;1790573;80;27443;-48
2023/03/21 01:28:27;;;;;;;101.22;91.37;;;;;;;7.97;91.92;100075.36;1790478;80;25717;-49
2023/03/21 01:30:54;;;;;;;96.08;86.00;;;;;;;7.95;91.87;100070.80;1790562;80;25428;-50
2023/03/21 01:33:22;;;;;;;99.30;89.17;;;;;;;7.92;91.86;100066.02;1790523;80;25483;-50
2023/03/21 01:35:48;;;;;;;75.57;66.67;;;;;;;7.89;91.95;100063.36;1790593;80;25371;-48
2023/03/21 01:38:15;;;;;;;97.85;88.40;;;;;;;7.90;92.55;100066.84;1790606;80;27473;-48
2023/03/21 01:40:45;;;;;;;98.33;88.27;;;;;;;7.87;92.05;100062.86;1790450;80;25379;-50
2023/03/21 01:43:29;;;;;;;96.30;85.97;;;;;;;7.85;92.01;100064.50;1790562;80;25402;-48
2023/03/21 01:46:29;;;;;;;95.50;85.75;;;;;;;7.84;92.00;100062.89;1789284;80;25486;-48
2023/03/21 01:49:16;;;;;;;95.05;85.87;;;;;;;7.84;92.47;100067.48;1744463;82;25440;-49
2023/03/21 01:51:47;;;;;;;63.40;43.20;;;;;;;7.80;92.41;100058.42;1729771;82;27522;-49
2023/03/21 01:54:23;;;;;;;54.90;26.55;;;;;;;7.82;92.18;100067.78;1719299;82;25517;-48
2023/03/21 01:56:52;;;;;;;55.10;27.20;;;;;;;7.82;92.09;100062.95;1744451;82;25524;-49
2023/03/21 01:59:30;;;;;;;54.75;27.07;;;;;;;7.79;92.28;100064.33;1744370;82;25540;-49
2023/03/21 02:02:05;;;;;;;57.35;27.58;;;;;;;7.77;92.09;100053.62;1744458;82;25427;-48
2023/03/21 02:04:29;;;;;;;54.40;26.73;;;;;;;7.76;92.12;100061.44;1743945;82;28251;-49
2023/03/21 02:07:04;;;;;;;64.17;26.05;;;;;;;7.74;92.08;100054.99;1744325;82;25685;-48
2023/03/21 02:09:34;;;;;;;54.38;27.50;;;;;;;7.72;92.55;100057.19;1744406;82;25442;-48
2023/03/21 02:12:01;;;;;;;59.45;28.40;;;;;;;7.71;92.32;100056.13;1719615;82;27036;-48
2023/03/21 02:14:31;;;;;;;54.83;27.42;;;;;;;7.71;92.34;100055.58;1744451;82;25434;-48
2023/03/21 02:17:21;;;;;;;60.05;28.40;;;;;;;7.71;92.16;100056.13;1702590;82;27385;-48
2023/03/21 02:20:07;;;;;;;;;;;;;;;7.71;92.05;100062.86;1721624;82;25457;-48
2023/03/21 02:22:52;;;;;;;51.02;25.25;;;;;;;7.70;92.05;100054.55;1745972;81;25504;-48
2023/03/21 02:25:45;;;;;;;52.80;26.62;;;;;;;7.70;91.92;100059.94;1781669;79;25450;-48
2023/03/21 02:28:29;;;;;;;57.20;25.62;;;;;;;7.69;91.92;100056.42;1812916;78;25363;-50
2023/03/21 02:31:00;;;;;;;47.95;23.65;;;;;;;7.69;92.12;100058.33;1812885;79;27456;-48
2023/03/21 02:34:05;;;;;;;51.50;26.75;;;;;;;7.69;91.94;100055.63;1811446;79;25779;-49
2023/03/21 02:36:58;;;;;;;53.25;24.47;;;;;;;7.71;92.16;100051.54;1796444;79;25385;-48
2023/03/21 02:39:38;;;;;;;51.83;25.35;;;;;;;7.72;92.07;100057.19;1829001;78;26001;-48
2023/03/21 02:42:22;;;;;;;49.55;27.20;;;;;;;7.74;92.02;100058.24;1796517;79;25365;-48
2023/03/21 02:45:03;;;;;;;50.80;27.02;;;;;;;7.75;92.12;100055.25;1828942;78;28130;-48
2023/03/21 02:48:11;;;;;;;50.52;26.52;;;;;;;7.78;92.19;100056.02;1796499;79;25851;-47
2023/03/21 02:50:51;;;;;;;55.85;26.07;;;;;;;7.79;92.29;100050.08;1772961;78;25467;-48
2023/03/21 02:53:22;;;;;;;48.87;23.32;;;;;;;7.81;92.35;100060.00;1796541;79;25486;-47
2023/03/21 02:55:51;;;;;;;53.05;27.35;;;;;;;7.81;92.21;100058.65;1829236;78;25384;-48
2023/03/21 02:58:23;;;;;;;53.85;27.27;;;;;;;7.82;92.12;100062.95;1796698;79;27650;-49
2023/03/21 03:00:54;;;;;;;56.35;27.90;;;;;;;7.80;92.07;100060.55;1829072;78;25379;-47
2023/03/21 03:03:19;;;;;;;51.23;26.60;;;;;;;7.84;92.21;100064.80;1796399;79;25387;-47
2023/03/21 03:05:56;;;;;;;52.05;27.30;;;;;;;7.85;92.21;100064.50;1800708;78;25932;-47
2023/03/21 03:08:42;;;;;;;50.55;27.80;;;;;;;7.85;92.14;100063.16;1796613;79;25455;-48
2023/03/21 03:11:28;;;;;;;49.70;25.77;;;;;;;7.84;92.30;100066.14;1829184;78;28032;-47
2023/03/21 03:14:28;;;;;;;53.33;26.97;;;;;;;7.82;92.10;100065.09;1769154;79;25437;-47
2023/03/21 03:17:21;;;;;;;50.55;26.35;;;;;;;7.82;92.24;100068.34;1828538;78;25406;-48
2023/03/21 03:20:23;;;;;;;51.50;27.17;;;;;;;7.83;92.20;100071.27;1796551;79;25991;-48
2023/03/21 03:23:00;;;;;;;53.83;27.90;;;;;;;7.82;92.13;100071.82;1686246;82;25472;-49
2023/03/21 03:25:38;;;;;;;54.25;27.27;;;;;;;7.79;92.16;100071.06;1733740;82;27454;-49
2023/03/21 03:28:07;;;;;;;52.73;27.75;;;;;;;7.82;92.24;100075.86;1670206;84;25513;-48
2023/03/21 03:30:36;;;;;;;54.98;28.65;;;;;;;7.83;92.34;100081.51;1680196;85;25544;-48
2023/03/21 03:33:06;;;;;;;56.20;28.77;;;;;;;7.82;92.21;100075.86;1697883;84;25567;-48
2023/03/21 03:35:32;;;;;;;51.20;28.83;;;;;;;7.84;92.20;100083.09;1697855;84;25502;-48
2023/03/21 03:38:03;;;;;;;50.25;28.65;;;;;;;7.82;92.24;100072.38;1697818;84;27484;-49
2023/03/21 03:40:40;;;;;;;55.88;27.67;;;;;;;7.82;92.38;100077.20;1697761;84;25442;-47
2023/03/21 03:43:12;;;;;;;53.70;26.73;;;;;;;7.84;92.34;100078.26;1695648;84;25510;-47
2023/03/21 03:45:48;;;;;;;50.88;27.13;;;;;;;7.85;92.33;100080.66;1697411;84;25570;-47
2023/03/21 03:48:30;;;;;;;53.78;26.85;;;;;;;7.85;92.18;100075.83;1696346;84;25449;-47
2023/03/21 03:51:16;;;;;;;55.80;27.00;;;;;;;7.84;92.02;100075.56;1697828;84;27505;-47
2023/03/21 03:53:53;;;;;;;53.17;26.48;;;;;;;7.85;92.00;100075.83;1679503;85;25693;-47
2023/03/21 03:56:20;;;;;;;50.33;26.10;;;;;;;7.84;92.08;100070.97;1679575;85;25469;-47
2023/03/21 03:58:46;;;;;;;55.48;27.42;;;;;;;7.84;92.11;100078.26;1656976;85;25501;-47
2023/03/21 04:01:13;;;;;;;53.45;28.92;;;;;;;7.84;91.96;100084.44;1675281;85;25556;-47
2023/03/21 04:03:42;;;;;;;47.55;27.05;;;;;;;7.85;91.95;100075.83;1682155;85;27499;-47
2023/03/21 04:06:09;;;;;;;51.33;27.07;;;;;;;7.84;91.94;100084.44;1755276;81;25438;-47
2023/03/21 04:08:36;;;;;;;51.35;28.73;;;;;;;7.83;92.07;100085.55;1772485;81;25507;-47
2023/03/21 04:11:03;;;;;;;56.35;27.55;;;;;;;7.81;92.06;100083.67;1772445;81;25490;-47
2023/03/21 04:13:29;;;;;;;48.78;26.37;;;;;;;7.80;91.89;100085.34;1747025;81;25424;-47
2023/03/21 04:15:56;;;;;;;50.43;27.65;;;;;;;7.77;92.21;100082.68;1746719;81;27321;-48
2023/03/21 04:18:22;;;;;;;47.90;26.40;;;;;;;7.75;92.08;100081.39;1772396;81;25550;-49
2023/03/21 04:20:50;;;;;;;45.67;26.00;;;;;;;7.74;92.14;100083.82;1772488;81;25439;-48
2023/03/21 04:23:18;;;;;;;59.00;27.50;;;;;;;7.74;92.29;100081.92;1766130;81;25490;-47
2023/03/21 04:25:45;;;;;;;51.13;27.73;;;;;;;7.75;92.30;100082.73;1761081;81;25513;-48
2023/03/21 04:28:11;;;;;;;52.60;26.52;;;;;;;7.76;92.36;100089.14;1735614;81;28055;-48
2023/03/21 04:30:38;;;;;;;51.95;27.32;;;;;;;7.76;92.39;100090.49;1778994;78;25424;-48
2023/03/21 04:33:04;;;;;;;51.15;26.20;;;;;;;7.76;92.51;100085.66;1787612;80;25475;-50
2023/03/21 04:35:31;;;;;;;45.92;24.00;;;;;;;7.73;92.37;100092.45;1819878;78;25454;-47
2023/03/21 04:37:57;;;;;;;53.02;25.88;;;;;;;7.73;92.36;100091.11;1787664;80;25440;-47
2023/03/21 04:40:24;;;;;;;59.98;45.43;;;;;;;7.73;92.29;100092.98;1814756;78;27403;-47
2023/03/21 04:42:51;;;;;;;42.33;22.73;;;;;;;7.73;92.33;100092.45;1757011;80;25457;-48
2023/03/21 04:45:18;;;;;;;41.77;22.20;;;;;;;7.72;92.27;100086.80;1819860;78;25418;-48
2023/03/21 04:47:44;;;;;;;38.40;21.30;;;;;;;7.72;92.13;100086.02;1787538;80;25577;-48
2023/03/21 04:50:12;;;;;;;36.77;19.98;;;;;;;7.70;92.08;100089.00;1819853;78;25424;-47
2023/03/21 04:52:39;;;;;;;39.38;20.92;;;;;;;7.70;91.98;100089.00;1787556;80;27590;-48
2023/03/21 04:55:08;;;;;;;36.23;19.90;;;;;;;7.70;91.97;100088.20;1819725;78;25586;-47
2023/03/21 04:57:37;;;;;;;;;;;;;;;7.71;92.04;100093.83;1760165;80;25491;-48
2023/03/21 05:00:12;;;;;;;36.10;18.42;;;;;;;7.69;92.16;100091.42;1756194;80;25421;-47
2023/03/21 05:02:38;;;;;;;36.30;19.07;;;;;;;7.67;92.02;100087.67;1789606;78;25377;-49
2023/03/21 05:05:09;;;;;;;38.25;20.37;;;;;;;7.69;92.07;100097.36;1787482;80;27630;-48
2023/03/21 05:07:34;;;;;;;35.60;19.85;;;;;;;7.67;92.16;100094.41;1819747;78;25452;-51
2023/03/21 05:10:01;;;;;;;36.53;19.73;;;;;;;7.67;92.24;100096.31;1787503;80;25396;-49
2023/03/21 05:12:27;;;;;;;34.33;19.25;;;;;;;7.70;92.41;100103.02;1819734;78;25375;-48
2023/03/21 05:14:53;;;;;;;34.27;18.95;;;;;;;7.71;92.32;100100.55;1787547;80;25508;-48
2023/03/21 05:17:23;;;;;;;36.48;19.62;;;;;;;7.71;92.21;100106.73;1819775;78;28140;-48
2023/03/21 05:19:49;;;;;;;36.63;19.32;;;;;;;7.71;92.29;100100.00;1786891;80;25456;-48
2023/03/21 05:22:18;;;;;;;36.93;18.62;;;;;;;7.73;92.35;100105.09;1819772;78;25428;-49
2023/03/21 05:24:49;;;;;;;33.85;17.10;;;;;;;7.74;92.54;100105.36;1756860;80;25822;-49
2023/03/21 05:27:13;;;;;;;34.98;18.02;;;;;;;7.76;92.64;100105.30;1819268;78;25427;-49
2023/03/21 05:29:39;;;;;;;34.33;19.90;;;;;;;7.77;92.48;100102.08;1787207;80;27368;-48
2023/03/21 05:32:05;;;;;;;31.48;19.20;;;;;;;7.80;92.47;100110.37;1819700;78;25357;-49
2023/03/21 05:34:31;;;;;;;33.78;19.60;;;;;;;7.82;92.39;100106.03;1787494;80;25483;-49
2023/03/21 05:36:58;;;;;;;34.23;18.10;;;;;;;7.85;92.38;100104.11;1819762;78;25594;-49
2023/03/21 05:39:24;;;;;;;32.40;18.57;;;;;;;7.87;92.38;100105.95;1787503;79;25357;-47
2023/03/21 05:41:50;;;;;;;33.95;18.57;;;;;;;7.89;92.48;100104.31;1819736;78;28008;-48
2023/03/21 05:44:17;;;;;;;31.75;18.80;;;;;;;7.89;92.27;100109.14;1787413;80;25746;-49
2023/03/21 05:46:43;;;;;;;34.25;18.75;;;;;;;7.91;92.28;100115.58;1819786;78;25469;-50
2023/03/21 05:49:11;;;;;;;33.63;19.42;;;;;;;7.92;92.33;100115.84;1787472;80;25541;-47
2023/03/21 05:51:37;;;;;;;34.03;18.90;;;;;;;7.92;92.17;100119.89;1819797;78;25431;-49
2023/03/21 05:54:04;;;;;;;39.88;20.55;;;;;;;7.91;92.13;100119.06;1787493;80;28066;-47
2023/03/21 05:56:30;;;;;;;48.35;26.82;;;;;;;7.91;92.14;100120.41;1819690;78;25508;-48
2023/03/21 05:58:56;;;;;;;32.50;19.40;;;;;;;7.93;92.29;100118.77;1787485;80;25428;-48
2023/03/21 06:01:22;;;;;;;31.60;18.77;;;;;;;7.94;92.31;100125.22;1819753;78;26153;-49
2023/03/21 06:03:48;;;;;;;35.17;20.25;;;;;;;7.95;92.35;100130.05;1787470;80;25409;-49
2023/03/21 06:06:14;;;;;;;38.28;20.45;;;;;;;7.96;92.17;100133.00;1819763;78;27642;-48
2023/03/21 06:08:41;;;;;;;32.05;19.87;;;;;;;7.98;92.20;100137.55;1787396;80;25408;-50
2023/03/21 06:11:19;;;;;;;34.83;18.90;;;;;;;7.99;92.04;100141.29;1819840;78;25360;-48
2023/03/21 06:13:45;;;;;;;39.60;20.52;;;;;;;7.99;92.09;100143.19;1758989;80;25463;-48
2023/03/21 06:16:11;;;;;;;32.80;18.48;;;;;;;7.99;91.98;100145.33;1819771;78;25391;-48
2023/03/21 06:18:38;;;;;;;36.00;19.48;;;;;;;8.00;91.94;100148.81;1787463;80;27497;-48
2023/03/21 06:21:04;;;;;;;33.73;18.82;;;;;;;8.02;92.04;100151.48;1819676;78;25465;-48
2023/03/21 06:23:30;;;;;;;34.80;19.85;;;;;;;8.03;91.98;100157.66;1789299;80;25434;-47
2023/03/21 06:25:57;;;;;;;29.63;18.65;;;;;;;8.01;91.66;100161.20;1825784;78;25460;-47
2023/03/21 06:28:23;;;;;;;31.30;18.67;;;;;;;8.02;91.81;100160.12;1793349;80;25495;-47
2023/03/21 06:30:51;;;;;;;30.95;18.82;;;;;;;8.01;91.81;100157.95;1825787;78;27473;-50
2023/03/21 06:33:17;;;;;;;34.65;19.60;;;;;;;8.02;91.66;100158.77;1793241;80;25485;-48
2023/03/21 06:35:44;;;;;;;34.10;18.12;;;;;;;8.02;91.75;100160.91;1825778;78;25480;-47
2023/03/21 06:38:10;;;;;;;30.40;17.37;;;;;;;8.04;91.70;100159.27;1793290;80;25478;-52
2023/03/21 06:40:38;;;;;;;34.05;19.92;;;;;;;8.06;91.84;100159.77;1769347;78;25439;-48
2023/03/21 06:43:04;;;;;;;31.20;18.75;;;;;;;8.09;91.97;100159.19;1793307;80;27441;-48
2023/03/21 06:45:31;;;;;;;31.60;19.25;;;;;;;8.10;91.78;100162.11;1825689;78;25848;-48
2023/03/21 06:47:57;;;;;;;35.88;20.50;;;;;;;8.12;91.94;100155.91;1793335;80;25419;-48
2023/03/21 06:50:23;;;;;;;34.10;20.23;;;;;;;8.14;91.90;100161.79;1825802;78;26106;-49
2023/03/21 06:52:49;;;;;;;33.10;19.48;;;;;;;8.19;92.16;100167.65;1793354;80;25401;-49
2023/03/21 06:55:18;;;;;;;31.10;19.02;;;;;;;8.22;91.97;100168.38;1825848;78;27623;-49
2023/03/21 06:57:44;;;;;;;29.72;18.87;;;;;;;8.24;91.88;100168.91;1793250;80;25460;-50
2023/03/21 07:00:12;;;;;;;29.45;17.48;;;;;;;8.24;91.63;100170.25;1825792;78;25471;-49
2023/03/21 07:02:38;;;;;;;29.92;17.67;;;;;;;8.25;91.37;100167.00;1793263;80;25465;-48
2023/03/21 07:05:06;;;;;;;26.52;16.82;;;;;;;8.26;91.25;100167.23;1825853;78;25421;-48
2023/03/21 07:07:33;;;;;;;23.30;14.95;;;;;;;8.30;91.39;100173.09;1793321;80;27497;-50
2023/03/21 07:09:59;;;;;;;27.27;15.83;;;;;;;8.35;91.51;100174.91;1825709;78;25384;-47
2023/03/21 07:12:25;;;;;;;25.43;15.55;;;;;;;8.36;91.28;100169.75;1793296;80;25451;-49
2023/03/21 07:14:52;;;;;;;25.70;15.25;;;;;;;8.38;91.24;100172.42;1825768;78;25488;-49
2023/03/21 07:17:18;;;;;;;24.85;15.30;;;;;;;8.45;91.37;100178.01;1793340;80;25391;-48
2023/03/21 07:19:44;;;;;;;24.37;14.58;;;;;;;8.49;91.32;100180.35;1825804;78;28094;-49
2023/03/21 07:22:10;;;;;;;22.87;14.90;;;;;;;8.51;90.99;100188.41;1792900;80;25399;-49
2023/03/21 07:24:37;;;;;;;24.25;15.40;;;;;;;8.53;91.21;100183.51;1814100;78;25362;-47
2023/03/21 07:27:03;;;;;;;27.95;17.62;;;;;;;8.57;91.15;100184.50;1738246;82;25946;-49
2023/03/21 07:29:29;;;;;;;25.12;16.12;;;;;;;8.60;91.22;100189.30;1768671;81;25455;-49
2023/03/21 07:31:56;;;;;;;33.40;17.77;;;;;;;8.65;91.54;100186.25;1768612;81;27550;-49
2023/03/21 07:34:22;;;;;;;30.85;17.82;;;;;;;8.68;91.24;100187.01;1768524;81;25453;-49
2023/03/21 07:36:48;;;;;;;36.20;19.45;;;;;;;8.70;91.15;100186.16;1738366;82;25453;-49
2023/03/21 07:39:16;;;;;;;23.62;15.43;;;;;;;8.73;90.84;100189.05;1768624;81;25485;-47
2023/03/21 07:41:42;;;;;;;22.77;14.80;;;;;;;8.74;90.84;100190.66;1768635;81;25493;-47
2023/03/21 07:44:08;;;;;;;24.77;15.23;;;;;;;8.77;90.64;100187.93;1738337;82;27470;-48
2023/03/21 07:46:35;;;;;;;25.92;14.55;;;;;;;8.82;90.93;100194.58;1768493;81;25666;-48
2023/03/21 07:49:01;;;;;;;23.15;14.05;;;;;;;8.90;91.22;100183.06;1768605;81;25453;-48
2023/03/21 07:51:27;;;;;;;23.12;15.30;;;;;;;9.01;91.23;100185.55;1768560;81;25998;-48
2023/03/21 07:53:54;;;;;;;21.40;14.18;;;;;;;9.06;90.90;100181.41;1768593;81;25457;-47
2023/03/21 07:56:20;;;;;;;20.95;14.78;;;;;;;9.09;90.03;100183.50;1738255;81;28308;-49
2023/03/21 07:58:46;;;;;;;24.02;15.13;;;;;;;9.13;89.60;100192.61;1768494;81;25471;-49
2023/03/21 08:01:13;;;;;;;25.08;15.70;;;;;;;9.14;89.60;100192.84;1768582;81;25474;-50
2023/03/21 08:03:39;;;;;;;26.70;16.35;;;;;;;9.20;89.83;100194.91;1738308;81;25445;-48
2023/03/21 08:06:06;;;;;;;27.37;16.60;;;;;;;9.28;90.57;100198.22;1768616;81;25417;-49
2023/03/21 08:08:33;;;;;;;20.75;13.13;;;;;;;9.43;90.55;100195.75;1768577;81;27574;-49
2023/03/21 08:10:59;;;;;;;18.75;12.63;;;;;;;9.60;90.06;100198.60;1738239;81;25776;-50
2023/03/21 08:13:26;;;;;;;18.95;12.90;;;;;;;9.72;89.75;100204.29;1763517;81;25463;-48
2023/03/21 08:15:52;;;;;;;18.25;12.95;;;;;;;9.86;89.94;100206.15;1763557;81;25460;-49
2023/03/21 08:18:19;;;;;;;18.82;12.25;;;;;;;9.99;89.49;100199.87;1768620;81;25405;-48
2023/03/21 08:20:45;;;;;;;16.45;11.93;;;;;;;10.14;89.29;100203.32;1768565;81;27437;-48
2023/03/21 08:23:12;;;;;;;15.35;11.10;;;;;;;10.16;87.23;100206.51;1738224;82;25778;-47
2023/03/21 08:25:39;;;;;;;18.12;10.82;;;;;;;10.14;86.66;100211.43;1794519;80;25369;-49
2023/03/21 08:28:05;;;;;;;16.73;11.53;;;;;;;10.09;85.51;100208.29;1794505;80;25506;-50
2023/03/21 08:30:31;;;;;;;15.58;11.08;;;;;;;10.09;85.66;100205.02;1794592;80;25495;-49
2023/03/21 08:33:00;;;;;;;18.85;11.75;;;;;;;10.07;85.07;100209.94;1761222;80;27462;-48
2023/03/21 08:35:27;;;;;;;17.00;11.90;;;;;;;10.03;84.82;100217.08;1794564;80;25431;-48
2023/03/21 08:37:53;;;;;;;17.62;11.88;;;;;;;10.02;85.01;100210.06;1794541;80;25392;-51
2023/03/21 08:40:20;;;;;;;21.35;13.13;;;;;;;10.07;85.20;100211.86;1794532;80;25475;-48
2023/03/21 08:42:46;;;;;;;15.83;11.33;;;;;;;10.17;85.97;100213.52;1787584;80;25460;-49
2023/03/21 08:45:15;;;;;;;15.80;11.15;;;;;;;10.33;86.27;100215.31;1786397;78;27300;-48
2023/03/21 08:47:42;;;;;;;15.97;11.60;;;;;;;10.48;86.32;100215.48;1787756;80;25372;-49
2023/03/21 08:50:13;;;;;;;20.27;11.75;;;;;;;10.64;86.31;100210.72;1819852;78;25440;-48
2023/03/21 08:52:39;;;;;;;15.65;10.70;;;;;;;10.84;85.95;100215.33;1757083;80;25477;-48
2023/03/21 08:55:07;;;;;;;16.05;11.10;;;;;;;11.10;85.23;100221.38;1819810;78;25454;-48
2023/03/21 08:57:33;;;;;;;14.23;10.15;;;;;;;11.26;83.84;100221.77;1787537;80;27468;-49
2023/03/21 08:59:59;;;;;;;15.43;10.48;;;;;;;11.37;83.17;100216.27;1819722;78;25660;-47
2023/03/21 09:02:26;;;;;;;13.10;10.25;;;;;;;11.50;82.72;100220.77;1782616;80;25513;-48
2023/03/21 09:04:53;;;;;;;14.68;10.43;;;;;;;11.58;81.65;100219.19;1819783;78;25478;-48
2023/03/21 09:07:20;;;;;;;15.28;10.30;;;;;;;11.66;81.32;100223.80;1787552;80;25401;-49
2023/03/21 09:09:47;;;;;;;12.68;10.32;;;;;;;11.71;80.88;100220.96;1819798;78;28092;-48
2023/03/21 09:12:13;;;;;;;11.55;7.40;;;;;;;11.82;80.82;100226.06;1787474;80;25457;-48
2023/03/21 09:14:40;;;;;;;10.28;7.95;;;;;;;11.82;79.74;100226.85;1819801;78;25455;-49
2023/03/21 09:17:06;;;;;;;9.90;7.20;;;;;;;11.80;78.51;100228.27;1787498;80;25552;-49
2023/03/21 09:19:33;;;;;;;11.10;8.68;;;;;;;11.74;78.21;100235.20;1819836;78;25396;-50
2023/03/21 09:22:00;;;;;;;12.35;8.43;;;;;;;11.64;77.72;100239.58;1787543;80;28032;-46
2023/03/21 09:24:26;;;;;;;10.23;7.62;;;;;;;11.60;77.53;100242.69;1787326;80;25502;-48
2023/03/21 09:26:53;;;;;;;11.28;7.83;;;;;;;11.47;76.88;100244.98;1787507;80;25443;-49
2023/03/21 09:29:20;;;;;;;11.03;7.45;;;;;;;11.38;76.96;100249.81;1787481;80;25517;-48
2023/03/21 09:31:46;;;;;;;12.07;8.20;;;;;;;11.30;76.74;100248.44;1787518;80;25435;-47
2023/03/21 09:34:17;;;;;;;25.90;13.65;;;;;;;11.25;76.81;100252.65;1787507;80;27487;-48
2023/03/21 09:36:43;;;;;;;14.03;9.30;;;;;;;11.19;76.80;100256.85;1786667;78;25403;-48
2023/03/21 09:39:10;;;;;;;9.25;6.87;;;;;;;11.15;77.21;100258.60;1787586;80;25455;-48
2023/03/21 09:42:07;;;;;;;8.70;6.05;;;;;;;11.13;76.96;100260.80;1819719;78;25524;-49
2023/03/21 09:45:15;;;;;;;8.53;6.00;;;;;;;11.06;76.21;100263.73;1787500;80;26854;-48
2023/03/21 09:47:48;;;;;;;6.17;5.25;;;;;;;10.90;76.07;100259.30;1787508;80;27451;-49
2023/03/21 09:50:18;;;;;;;8.83;6.17;;;;;;;10.76;75.81;100267.48;1731938;80;25781;-47
2023/03/21 09:53:04;;;;;;;7.72;5.58;;;;;;;10.62;75.93;100261.63;1787504;80;25380;-47
2023/03/21 09:55:33;;;;;;;9.10;6.17;;;;;;;10.57;76.44;100267.17;1787428;80;25490;-47
2023/03/21 09:58:19;;;;;;;8.80;6.62;;;;;;;10.52;76.47;100263.24;1787533;80;25447;-49
2023/03/21 10:00:49;;;;;;;10.00;6.30;;;;;;;10.44;76.47;100265.34;1786910;80;27668;-49
2023/03/21 10:03:23;;;;;;;8.30;6.37;;;;;;;10.33;76.34;100262.62;1787325;80;25870;-50
2023/03/21 10:05:57;;;;;;;9.38;6.05;;;;;;;10.29;76.63;100263.77;1787501;80;25470;-49
2023/03/21 10:08:33;;;;;;;8.23;5.85;;;;;;;10.24;76.74;100259.83;1787478;80;25534;-52
2023/03/21 10:11:11;;;;;;;10.55;6.40;;;;;;;10.18;76.63;100255.64;1787493;80;25475;-51
2023/03/21 10:13:48;;;;;;;10.65;7.00;;;;;;;10.13;76.98;100252.53;1772289;80;28157;-51
2023/03/21 10:16:26;;;;;;;10.00;6.25;;;;;;;10.12;77.26;100263.09;1785946;80;25463;-50
2023/03/21 10:18:54;;;;;;;10.60;7.87;;;;;;;10.15;77.44;100248.97;1786097;80;25435;-49
2023/03/21 10:21:26;;;;;;;57.17;42.00;;;;;;;10.23;77.85;100254.99;1787478;80;25476;-48
2023/03/21 10:23:56;;;;;;;12.28;8.93;;;;;;;10.31;78.01;100253.44;1819747;78;25428;-48
2023/03/21 10:26:26;;;;;;;11.80;9.13;;;;;;;10.44;78.32;100260.72;1793357;80;27480;-49
2023/03/21 10:29:00;;;;;;;18.48;13.53;;;;;;;10.55;77.81;100259.90;1825831;78;25419;-49
2023/03/21 10:31:29;;;;;;;9.35;6.85;;;;;;;10.65;78.03;100262.34;1793374;80;25388;-51
2023/03/21 10:34:01;;;;;;;11.15;6.85;;;;;;;10.73;77.64;100264.08;1825936;78;25484;-49
2023/03/21 10:36:31;;;;;;;9.03;6.97;;;;;;;10.72;76.91;100270.58;1793369;80;25460;-48
2023/03/21 10:39:07;;;;;;;10.68;7.08;;;;;;;10.62;76.73;100272.98;1825823;78;28011;-48
2023/03/21 10:41:33;;;;;;;13.32;9.13;;;;;;;10.49;77.00;100271.15;1791766;80;25454;-48
2023/03/21 10:44:16;;;;;;;20.02;11.95;;;;;;;10.45;77.82;100279.08;1825769;78;25443;-48
2023/03/21 10:46:58;;;;;;;14.47;8.85;;;;;;;10.46;78.63;100282.83;1793304;80;26065;-49
2023/03/21 11:23:50;;;;;;;6.42;4.40;;;;;;;10.71;79.27;100280.61;1783188;80;25449;-45
2023/03/21 11:26:27;;;;;;;4.78;4.03;;;;;;;11.06;80.09;100275.91;1788333;80;25441;-47
2023/03/21 11:28:54;;;;;;;4.30;3.67;;;;;;;11.23;79.37;100280.03;1787672;80;27693;-49
2023/03/21 11:31:23;;;;;;;4.72;4.20;;;;;;;11.38;79.06;100275.54;1725011;81;25503;-46
2023/03/21 11:33:58;;;;;;;3.47;3.13;;;;;;;11.51;78.71;100275.19;1727684;81;25487;-47
2023/03/21 11:36:37;;;;;;;4.55;4.10;;;;;;;11.60;78.28;100275.20;1787551;80;25477;-47
2023/03/21 11:39:23;;;;;;;6.45;4.97;;;;;;;11.82;78.78;100266.71;1752933;81;25402;-46
2023/03/21 11:41:50;;;;;;;;;;;;;;;12.00;78.22;100265.61;1788965;80;28134;-46
2023/03/21 11:44:28;;;;;;;7.42;5.47;;;;;;;12.18;77.59;100266.98;1787513;80;25473;-50
2023/03/21 11:46:54;;;;;;;6.92;5.22;;;;;;;12.23;77.27;100258.11;1754862;81;25422;-46
2023/03/21 11:49:22;;;;;;;75.10;42.95;;;;;;;12.33;76.91;100263.20;1787566;80;25497;-48
2023/03/21 11:52:18;;;;;;;15.32;9.80;;;;;;;12.55;77.88;100254.64;1725155;81;25399;-47
2023/03/21 11:55:15;;;;;;;14.03;9.63;;;;;;;12.81;77.28;100257.84;1756096;81;28153;-47
2023/03/21 11:57:59;;;;;;;7.90;5.00;;;;;;;13.10;76.09;100257.65;1787076;80;25835;-49
2023/03/21 12:00:45;;;;;;;7.37;5.35;;;;;;;13.24;74.46;100259.56;1754518;81;25407;-47
2023/03/21 12:03:42;;;;;;;5.87;4.65;;;;;;;13.31;73.83;100257.13;1681170;85;25492;-48
2023/03/21 12:06:23;;;;;;;6.10;4.28;;;;;;;13.19;72.64;100260.53;1681743;85;25460;-48
2023/03/21 12:09:04;;;;;;;7.90;4.60;;;;;;;13.05;72.06;100259.41;1680914;85;27543;-48
2023/03/21 12:11:57;;;;;;;8.28;5.47;;;;;;;12.97;72.00;100257.52;1681620;85;25511;-47